sensor_id;sensor_type;location;lat;lon;timestamp;pressure;altitude;pressure_sealevel;temperature;humidity
35248;BME280;21380;52.194;20.520;2024-03-02T00:00:37;100186.44;;;18.60;62.68
35248;BME280;21380;52.194;20.520;2024-03-02T00:03:23;100185.53;;;18.60;62.94
35248;BME280;21380;52.194;20.520;2024-03-02T00:05:49;100188.16;;;18.58;62.77
35248;BME280;21380;52.194;20.520;2024-03-02T00:08:18;100172.47;;;18.58;62.75
35248;BME280;21380;52.194;20.520;2024-03-02T00:10:47;100175.94;;;18.57;62.79
35248;BME280;21380;52.194;20.520;2024-03-02T00:13:13;100169.88;;;18.58;62.71
35248;BME280;21380;52.194;20.520;2024-03-02T00:18:05;100166.38;;;18.55;62.71
35248;BME280;21380;52.194;20.520;2024-03-02T00:20:31;100175.06;;;18.54;62.76
35248;BME280;21380;52.194;20.520;2024-03-02T00:23:00;100169.84;;;18.54;62.94
35248;BME280;21380;52.194;20.520;2024-03-02T00:25:34;100173.31;;;18.53;62.61
35248;BME280;21380;52.194;20.520;2024-03-02T00:28:01;100160.22;;;18.43;62.86
35248;BME280;21380;52.194;20.520;2024-03-02T00:33:11;100169.84;;;18.52;62.79
35248;BME280;21380;52.194;20.520;2024-03-02T00:35:36;100172.47;;;18.52;62.77
35248;BME280;21380;52.194;20.520;2024-03-02T00:38:05;100174.22;;;18.52;62.92
35248;BME280;21380;52.194;20.520;2024-03-02T00:40:31;100174.19;;;18.50;62.87
35248;BME280;21380;52.194;20.520;2024-03-02T00:42:58;100175.06;;;18.49;62.88
35248;BME280;21380;52.194;20.520;2024-03-02T00:45:24;100181.16;;;18.48;63.02
35248;BME280;21380;52.194;20.520;2024-03-02T00:47:51;100179.41;;;18.47;62.85
35248;BME280;21380;52.194;20.520;2024-03-02T00:50:16;100171.56;;;18.47;62.94
35248;BME280;21380;52.194;20.520;2024-03-02T00:52:43;100173.28;;;18.45;62.99
35248;BME280;21380;52.194;20.520;2024-03-02T00:55:09;100160.22;;;18.45;62.84
35248;BME280;21380;52.194;20.520;2024-03-02T00:57:35;100159.38;;;18.44;62.93
35248;BME280;21380;52.194;20.520;2024-03-02T01:00:00;100149.78;;;18.42;62.76
35248;BME280;21380;52.194;20.520;2024-03-02T01:02:27;100154.16;;;18.43;62.93
35248;BME280;21380;52.194;20.520;2024-03-02T01:04:54;100151.50;;;18.41;62.81
35248;BME280;21380;52.194;20.520;2024-03-02T01:07:20;100148.03;;;18.41;62.81
35248;BME280;21380;52.194;20.520;2024-03-02T01:09:46;100148.91;;;18.40;62.95
35248;BME280;21380;52.194;20.520;2024-03-02T01:12:12;100147.16;;;18.39;62.81
35248;BME280;21380;52.194;20.520;2024-03-02T01:14:37;100156.72;;;18.40;62.79
35248;BME280;21380;52.194;20.520;2024-03-02T01:17:03;100155.88;;;18.39;62.67
35248;BME280;21380;52.194;20.520;2024-03-02T01:19:29;100157.59;;;18.37;62.74
35248;BME280;21380;52.194;20.520;2024-03-02T01:21:55;100148.91;;;18.38;62.80
35248;BME280;21380;52.194;20.520;2024-03-02T01:24:22;100154.13;;;18.38;62.84
35248;BME280;21380;52.194;20.520;2024-03-02T01:26:48;100160.22;;;18.39;63.03
35248;BME280;21380;52.194;20.520;2024-03-02T01:29:13;100154.97;;;18.39;62.88
35248;BME280;21380;52.194;20.520;2024-03-02T01:31:39;100155.88;;;18.39;63.03
35248;BME280;21380;52.194;20.520;2024-03-02T01:34:07;100147.16;;;18.37;62.89
35248;BME280;21380;52.194;20.520;2024-03-02T01:36:33;100154.13;;;18.40;62.84
35248;BME280;21380;52.194;20.520;2024-03-02T01:38:59;100142.81;;;18.39;62.87
35248;BME280;21380;52.194;20.520;2024-03-02T01:41:25;100152.38;;;18.37;63.00
35248;BME280;21380;52.194;20.520;2024-03-02T01:43:51;100145.41;;;18.38;63.04
35248;BME280;21380;52.194;20.520;2024-03-02T01:46:17;100141.06;;;18.37;62.93
35248;BME280;21380;52.194;20.520;2024-03-02T01:48:42;100141.06;;;18.37;63.05
35248;BME280;21380;52.194;20.520;2024-03-02T01:51:08;100135.81;;;18.35;63.08
35248;BME280;21380;52.194;20.520;2024-03-02T01:53:34;100138.44;;;18.35;63.15
35248;BME280;21380;52.194;20.520;2024-03-02T01:56:00;100140.19;;;18.33;63.04
35248;BME280;21380;52.194;20.520;2024-03-02T01:58:27;100126.25;;;18.34;63.11
35248;BME280;21380;52.194;20.520;2024-03-02T02:00:53;100124.50;;;18.33;62.81
35248;BME280;21380;52.194;20.520;2024-03-02T02:03:19;100123.63;;;18.33;63.13
35248;BME280;21380;52.194;20.520;2024-03-02T02:05:45;100122.75;;;18.32;62.98
35248;BME280;21380;52.194;20.520;2024-03-02T02:08:13;100130.59;;;18.32;63.07
35248;BME280;21380;52.194;20.520;2024-03-02T02:10:39;100130.59;;;18.32;63.05
35248;BME280;21380;52.194;20.520;2024-03-02T02:13:05;100126.22;;;18.31;62.89
35248;BME280;21380;52.194;20.520;2024-03-02T02:15:31;100129.72;;;18.33;62.89
35248;BME280;21380;52.194;20.520;2024-03-02T02:17:57;100134.97;;;18.33;62.98
35248;BME280;21380;52.194;20.520;2024-03-02T02:20:24;100124.50;;;18.33;62.85
35248;BME280;21380;52.194;20.520;2024-03-02T02:23:02;100126.22;;;18.33;62.95
35248;BME280;21380;52.194;20.520;2024-03-02T02:25:29;100131.44;;;18.33;63.05
35248;BME280;21380;52.194;20.520;2024-03-02T02:27:55;100126.22;;;18.33;63.05
35248;BME280;21380;52.194;20.520;2024-03-02T02:30:25;100119.25;;;18.31;62.83
35248;BME280;21380;52.194;20.520;2024-03-02T02:32:51;100116.66;;;18.30;63.00
35248;BME280;21380;52.194;20.520;2024-03-02T02:35:17;100112.31;;;18.30;62.90
35248;BME280;21380;52.194;20.520;2024-03-02T02:37:43;100110.56;;;18.31;62.96
35248;BME280;21380;52.194;20.520;2024-03-02T02:40:10;100120.16;;;18.30;63.03
35248;BME280;21380;52.194;20.520;2024-03-02T02:42:36;100114.94;;;18.30;63.11
35248;BME280;21380;52.194;20.520;2024-03-02T02:45:02;100112.28;;;18.29;63.09
35248;BME280;21380;52.194;20.520;2024-03-02T02:47:27;100107.97;;;18.29;63.19
35248;BME280;21380;52.194;20.520;2024-03-02T02:49:55;100115.78;;;18.29;63.11
35248;BME280;21380;52.194;20.520;2024-03-02T02:52:21;100107.97;;;18.29;63.03
35248;BME280;21380;52.194;20.520;2024-03-02T02:54:47;100106.22;;;18.30;63.11
35248;BME280;21380;52.194;20.520;2024-03-02T02:57:12;100104.47;;;18.29;63.00
35248;BME280;21380;52.194;20.520;2024-03-02T02:59:38;100105.34;;;18.29;63.07
35248;BME280;21380;52.194;20.520;2024-03-02T03:02:04;100110.56;;;18.29;63.25
35248;BME280;21380;52.194;20.520;2024-03-02T03:04:30;100101.84;;;18.29;63.05
35248;BME280;21380;52.194;20.520;2024-03-02T03:06:56;100102.75;;;18.28;63.28
35248;BME280;21380;52.194;20.520;2024-03-02T03:09:22;100100.13;;;18.28;62.98
35248;BME280;21380;52.194;20.520;2024-03-02T03:11:47;100099.22;;;18.27;63.22
35248;BME280;21380;52.194;20.520;2024-03-02T03:14:13;100100.13;;;18.28;63.02
35248;BME280;21380;52.194;20.520;2024-03-02T03:16:39;100101.00;;;18.27;63.08
35248;BME280;21380;52.194;20.520;2024-03-02T03:19:05;100101.00;;;18.27;63.10
35248;BME280;21380;52.194;20.520;2024-03-02T03:21:31;100100.09;;;18.26;63.35
35248;BME280;21380;52.194;20.520;2024-03-02T03:23:56;100099.22;;;18.27;63.30
35248;BME280;21380;52.194;20.520;2024-03-02T03:26:22;100089.69;;;18.28;63.04
35248;BME280;21380;52.194;20.520;2024-03-02T03:28:48;100096.63;;;18.27;63.00
35248;BME280;21380;52.194;20.520;2024-03-02T03:31:14;100095.75;;;18.28;63.02
35248;BME280;21380;52.194;20.520;2024-03-02T03:33:40;100089.66;;;18.26;63.16
35248;BME280;21380;52.194;20.520;2024-03-02T03:36:05;100091.41;;;18.26;63.08
35248;BME280;21380;52.194;20.520;2024-03-02T03:38:31;100097.50;;;18.26;63.21
35248;BME280;21380;52.194;20.520;2024-03-02T03:40:57;100091.41;;;18.26;63.13
35248;BME280;21380;52.194;20.520;2024-03-02T03:43:23;100098.38;;;18.25;63.09
35248;BME280;21380;52.194;20.520;2024-03-02T03:45:49;100095.78;;;18.25;63.19
35248;BME280;21380;52.194;20.520;2024-03-02T03:48:14;100087.03;;;18.25;63.19
35248;BME280;21380;52.194;20.520;2024-03-02T03:50:40;100086.19;;;18.24;63.02
35248;BME280;21380;52.194;20.520;2024-03-02T03:53:06;100087.91;;;18.24;63.07
35248;BME280;21380;52.194;20.520;2024-03-02T03:55:32;100087.91;;;18.24;63.06
35248;BME280;21380;52.194;20.520;2024-03-02T03:57:58;100089.66;;;18.25;63.35
35248;BME280;21380;52.194;20.520;2024-03-02T04:00:24;100080.97;;;18.24;63.10
35248;BME280;21380;52.194;20.520;2024-03-02T04:02:50;100085.31;;;18.25;63.18
35248;BME280;21380;52.194;20.520;2024-03-02T04:05:15;100087.03;;;18.26;63.50
35248;BME280;21380;52.194;20.520;2024-03-02T04:07:41;100097.50;;;18.26;62.96
35248;BME280;21380;52.194;20.520;2024-03-02T04:10:08;100091.41;;;18.26;63.33
35248;BME280;21380;52.194;20.520;2024-03-02T04:12:35;100098.38;;;18.25;63.24
35248;BME280;21380;52.194;20.520;2024-03-02T04:15:02;100104.47;;;18.24;63.16
35248;BME280;21380;52.194;20.520;2024-03-02T04:17:31;100106.22;;;18.25;63.44
35248;BME280;21380;52.194;20.520;2024-03-02T04:19:56;100098.34;;;18.24;63.22
35248;BME280;21380;52.194;20.520;2024-03-02T04:22:22;100105.31;;;18.23;63.25
35248;BME280;21380;52.194;20.520;2024-03-02T04:24:48;100095.75;;;18.22;63.24
35248;BME280;21380;52.194;20.520;2024-03-02T04:27:14;100102.72;;;18.23;63.17
35248;BME280;21380;52.194;20.520;2024-03-02T04:29:39;100096.59;;;18.23;63.29
35248;BME280;21380;52.194;20.520;2024-03-02T04:32:05;100098.34;;;18.24;63.22
35248;BME280;21380;52.194;20.520;2024-03-02T04:34:31;100100.09;;;18.23;63.24
35248;BME280;21380;52.194;20.520;2024-03-02T04:36:56;100100.97;;;18.22;63.39
35248;BME280;21380;52.194;20.520;2024-03-02T04:39:22;100102.72;;;18.23;63.40
35248;BME280;21380;52.194;20.520;2024-03-02T04:41:48;100084.41;;;18.20;63.18
35248;BME280;21380;52.194;20.520;2024-03-02T04:44:14;100094.84;;;18.19;63.31
35248;BME280;21380;52.194;20.520;2024-03-02T04:46:40;100092.25;;;18.17;63.14
35248;BME280;21380;52.194;20.520;2024-03-02T04:49:05;100104.44;;;18.18;63.18
35248;BME280;21380;52.194;20.520;2024-03-02T04:51:31;100104.44;;;18.17;63.41
35248;BME280;21380;52.194;20.520;2024-03-02T04:53:57;100106.16;;;18.16;63.29
35248;BME280;21380;52.194;20.520;2024-03-02T04:56:23;100097.44;;;18.14;63.35
35248;BME280;21380;52.194;20.520;2024-03-02T04:59:07;100102.66;;;18.14;63.22
35248;BME280;21380;52.194;20.520;2024-03-02T05:01:33;100103.53;;;18.13;63.28
35248;BME280;21380;52.194;20.520;2024-03-02T05:03:59;100114.00;;;18.13;63.44
35248;BME280;21380;52.194;20.520;2024-03-02T05:06:25;100113.09;;;18.12;63.18
35248;BME280;21380;52.194;20.520;2024-03-02T05:08:51;100109.63;;;18.13;63.43
35248;BME280;21380;52.194;20.520;2024-03-02T05:11:16;100121.81;;;18.13;63.20
35248;BME280;21380;52.194;20.520;2024-03-02T05:14:01;100126.16;;;18.12;63.40
35248;BME280;21380;52.194;20.520;2024-03-02T05:16:26;100114.84;;;18.12;63.35
35248;BME280;21380;52.194;20.520;2024-03-02T05:18:52;100132.22;;;18.11;63.32
35248;BME280;21380;52.194;20.520;2024-03-02T05:21:18;100139.19;;;18.11;63.33
35248;BME280;21380;52.194;20.520;2024-03-02T05:23:44;100137.44;;;18.10;63.10
35248;BME280;21380;52.194;20.520;2024-03-02T05:26:09;100133.97;;;18.09;63.33
35248;BME280;21380;52.194;20.520;2024-03-02T05:28:38;100135.69;;;18.09;63.30
35248;BME280;21380;52.194;20.520;2024-03-02T05:31:04;100140.06;;;18.10;63.26
35248;BME280;21380;52.194;20.520;2024-03-02T05:33:30;100139.19;;;18.09;63.17
35248;BME280;21380;52.194;20.520;2024-03-02T05:35:57;100139.19;;;18.09;63.16
35248;BME280;21380;52.194;20.520;2024-03-02T05:38:23;100137.44;;;18.08;63.30
35248;BME280;21380;52.194;20.520;2024-03-02T05:40:48;100139.19;;;18.08;63.05
35248;BME280;21380;52.194;20.520;2024-03-02T05:43:14;100146.13;;;18.09;63.06
35248;BME280;21380;52.194;20.520;2024-03-02T05:45:42;100149.63;;;18.08;63.29
35248;BME280;21380;52.194;20.520;2024-03-02T05:48:08;100141.81;;;18.08;62.94
35248;BME280;21380;52.194;20.520;2024-03-02T05:50:34;100140.91;;;18.07;63.27
35248;BME280;21380;52.194;20.520;2024-03-02T05:53:00;100144.41;;;18.08;63.22
35248;BME280;21380;52.194;20.520;2024-03-02T05:55:26;100149.63;;;18.08;63.07
35248;BME280;21380;52.194;20.520;2024-03-02T05:57:52;100148.75;;;18.07;63.27
35248;BME280;21380;52.194;20.520;2024-03-02T06:00:23;100159.19;;;18.09;63.20
35248;BME280;21380;52.194;20.520;2024-03-02T06:02:49;100153.97;;;18.09;63.16
35248;BME280;21380;52.194;20.520;2024-03-02T06:05:15;100150.50;;;18.10;63.29
35248;BME280;21380;52.194;20.520;2024-03-02T06:07:42;100160.09;;;18.11;63.31
35248;BME280;21380;52.194;20.520;2024-03-02T06:10:08;100167.91;;;18.11;63.04
35248;BME280;21380;52.194;20.520;2024-03-02T06:12:34;100160.94;;;18.10;62.96
35248;BME280;21380;52.194;20.520;2024-03-02T06:15:00;100172.28;;;18.10;63.15
35248;BME280;21380;52.194;20.520;2024-03-02T06:17:26;100161.81;;;18.09;63.05
35248;BME280;21380;52.194;20.520;2024-03-02T06:19:52;100162.69;;;18.09;63.20
35248;BME280;21380;52.194;20.520;2024-03-02T06:22:18;100166.16;;;18.10;63.36
35248;BME280;21380;52.194;20.520;2024-03-02T06:24:44;100163.56;;;18.11;63.08
35248;BME280;21380;52.194;20.520;2024-03-02T06:27:10;100168.78;;;18.11;63.13
35248;BME280;21380;52.194;20.520;2024-03-02T06:29:36;100162.69;;;18.11;63.10
35248;BME280;21380;52.194;20.520;2024-03-02T06:32:02;100171.38;;;18.11;62.87
35248;BME280;21380;52.194;20.520;2024-03-02T06:34:28;100163.59;;;18.13;63.39
35248;BME280;21380;52.194;20.520;2024-03-02T06:36:54;100180.09;;;18.13;63.37
35248;BME280;21380;52.194;20.520;2024-03-02T06:39:19;100167.91;;;18.14;63.16
35248;BME280;21380;52.194;20.520;2024-03-02T06:41:45;100172.28;;;18.15;63.24
35248;BME280;21380;52.194;20.520;2024-03-02T06:44:12;100183.56;;;18.14;63.17
35248;BME280;21380;52.194;20.520;2024-03-02T06:46:39;100171.41;;;18.14;63.05
35248;BME280;21380;52.194;20.520;2024-03-02T06:49:04;100175.75;;;18.14;63.23
35248;BME280;21380;52.194;20.520;2024-03-02T06:51:30;100178.38;;;18.15;63.19
35248;BME280;21380;52.194;20.520;2024-03-02T06:53:56;100174.03;;;18.16;63.27
35248;BME280;21380;52.194;20.520;2024-03-02T06:56:22;100182.72;;;18.15;63.12
35248;BME280;21380;52.194;20.520;2024-03-02T06:58:47;100177.50;;;18.15;63.39
35248;BME280;21380;52.194;20.520;2024-03-02T07:01:13;100192.31;;;18.14;63.40
35248;BME280;21380;52.194;20.520;2024-03-02T07:03:39;100188.78;;;18.14;63.17
35248;BME280;21380;52.194;20.520;2024-03-02T07:06:05;100178.34;;;18.14;63.19
35248;BME280;21380;52.194;20.520;2024-03-02T07:08:31;100179.25;;;18.13;62.98
35248;BME280;21380;52.194;20.520;2024-03-02T07:10:57;100190.56;;;18.15;63.35
35248;BME280;21380;52.194;20.520;2024-03-02T07:13:22;100180.97;;;18.14;63.33
35248;BME280;21380;52.194;20.520;2024-03-02T07:15:48;100183.63;;;18.15;63.38
35248;BME280;21380;52.194;20.520;2024-03-02T07:18:33;100177.47;;;18.06;63.29
35248;BME280;21380;52.194;20.520;2024-03-02T07:21:07;100201.00;;;18.15;63.40
35248;BME280;21380;52.194;20.520;2024-03-02T07:23:32;100201.03;;;18.17;63.30
35248;BME280;21380;52.194;20.520;2024-03-02T07:25:58;100197.53;;;18.14;63.25
35248;BME280;21380;52.194;20.520;2024-03-02T07:28:26;100200.13;;;18.14;63.44
35248;BME280;21380;52.194;20.520;2024-03-02T07:31:01;100206.22;;;18.15;63.48
35248;BME280;21380;52.194;20.520;2024-03-02T07:33:27;100200.13;;;18.16;63.14
35248;BME280;21380;52.194;20.520;2024-03-02T07:35:56;100201.88;;;18.15;63.49
35248;BME280;21380;52.194;20.520;2024-03-02T07:38:22;100201.00;;;18.15;63.43
35248;BME280;21380;52.194;20.520;2024-03-02T07:40:48;100210.56;;;18.14;63.33
35248;BME280;21380;52.194;20.520;2024-03-02T07:43:17;100211.44;;;18.13;63.23
35248;BME280;21380;52.194;20.520;2024-03-02T07:45:43;100209.69;;;18.14;63.44
35248;BME280;21380;52.194;20.520;2024-03-02T07:48:09;100214.91;;;18.14;63.43
35248;BME280;21380;52.194;20.520;2024-03-02T07:50:35;100211.44;;;18.12;63.35
35248;BME280;21380;52.194;20.520;2024-03-02T07:53:01;100221.00;;;18.13;63.42
35248;BME280;21380;52.194;20.520;2024-03-02T07:55:27;100213.19;;;18.13;63.29
35248;BME280;21380;52.194;20.520;2024-03-02T07:57:52;100205.34;;;18.14;63.63
35248;BME280;21380;52.194;20.520;2024-03-02T08:00:18;100218.41;;;18.16;63.49
35248;BME280;21380;52.194;20.520;2024-03-02T08:02:44;100212.31;;;18.17;63.43
35248;BME280;21380;52.194;20.520;2024-03-02T08:05:10;100217.56;;;18.17;63.17
35248;BME280;21380;52.194;20.520;2024-03-02T08:07:36;100217.56;;;18.17;63.14
35248;BME280;21380;52.194;20.520;2024-03-02T08:10:02;100211.47;;;18.18;63.29
35248;BME280;21380;52.194;20.520;2024-03-02T08:12:28;100207.09;;;18.19;63.16
35248;BME280;21380;52.194;20.520;2024-03-02T08:14:54;100212.31;;;18.19;63.23
35248;BME280;21380;52.194;20.520;2024-03-02T08:17:19;100212.31;;;18.17;63.19
35248;BME280;21380;52.194;20.520;2024-03-02T08:19:45;100215.81;;;18.18;63.44
35248;BME280;21380;52.194;20.520;2024-03-02T08:22:14;100224.53;;;18.18;63.44
35248;BME280;21380;52.194;20.520;2024-03-02T08:24:40;100221.03;;;18.18;63.20
35248;BME280;21380;52.194;20.520;2024-03-02T08:27:06;100219.31;;;18.17;63.35
35248;BME280;21380;52.194;20.520;2024-03-02T08:29:32;100221.00;;;18.16;63.43
35248;BME280;21380;52.194;20.520;2024-03-02T08:31:58;100228.84;;;18.16;63.15
35248;BME280;21380;52.194;20.520;2024-03-02T08:34:24;100234.06;;;18.18;63.44
35248;BME280;21380;52.194;20.520;2024-03-02T08:36:49;100232.34;;;18.17;63.22
35248;BME280;21380;52.194;20.520;2024-03-02T08:39:15;100248.78;;;15.34;61.39
35248;BME280;21380;52.194;20.520;2024-03-02T08:41:45;100249.25;;;13.91;64.35
35248;BME280;21380;52.194;20.520;2024-03-02T08:44:11;100248.00;;;13.41;66.18
35248;BME280;21380;52.194;20.520;2024-03-02T08:46:37;100246.91;;;13.01;67.47
35248;BME280;21380;52.194;20.520;2024-03-02T08:49:04;100245.06;;;12.67;68.43
35248;BME280;21380;52.194;20.520;2024-03-02T08:51:30;100254.59;;;12.39;69.37
35248;BME280;21380;52.194;20.520;2024-03-02T08:53:56;100262.13;;;12.31;69.80
35248;BME280;21380;52.194;20.520;2024-03-02T08:56:23;100247.59;;;12.07;70.69
35248;BME280;21380;52.194;20.520;2024-03-02T08:58:49;100246.84;;;11.58;72.71
35248;BME280;21380;52.194;20.520;2024-03-02T09:01:15;100248.63;;;11.59;72.90
35248;BME280;21380;52.194;20.520;2024-03-02T09:03:42;100244.44;;;11.37;73.88
35248;BME280;21380;52.194;20.520;2024-03-02T09:06:11;100244.19;;;12.08;71.70
35248;BME280;21380;52.194;20.520;2024-03-02T09:08:37;100233.03;;;12.99;70.29
35248;BME280;21380;52.194;20.520;2024-03-02T09:11:04;100235.84;;;13.74;68.85
35248;BME280;21380;52.194;20.520;2024-03-02T09:13:30;100231.94;;;14.30;67.34
35248;BME280;21380;52.194;20.520;2024-03-02T09:15:56;100238.34;;;14.85;71.35
35248;BME280;21380;52.194;20.520;2024-03-02T09:18:22;100236.09;;;12.86;69.05
35248;BME280;21380;52.194;20.520;2024-03-02T09:20:48;100242.44;;;12.07;71.56
35248;BME280;21380;52.194;20.520;2024-03-02T09:23:14;100245.09;;;11.57;73.60
35248;BME280;21380;52.194;20.520;2024-03-02T09:25:39;100238.00;;;12.61;70.51
35248;BME280;21380;52.194;20.520;2024-03-02T09:28:05;100247.84;;;13.37;69.08
35248;BME280;21380;52.194;20.520;2024-03-02T09:30:32;100237.25;;;13.96;68.30
35248;BME280;21380;52.194;20.520;2024-03-02T09:32:58;100221.78;;;14.39;67.56
35248;BME280;21380;52.194;20.520;2024-03-02T09:35:24;100225.97;;;14.73;66.52
35248;BME280;21380;52.194;20.520;2024-03-02T09:37:50;100230.84;;;15.01;65.75
35248;BME280;21380;52.194;20.520;2024-03-02T09:40:17;100226.91;;;15.21;65.10
35248;BME280;21380;52.194;20.520;2024-03-02T09:42:47;100236.72;;;15.38;64.74
35248;BME280;21380;52.194;20.520;2024-03-02T09:45:17;100237.88;;;15.52;64.30
35248;BME280;21380;52.194;20.520;2024-03-02T09:47:44;100232.84;;;15.65;63.97
35248;BME280;21380;52.194;20.520;2024-03-02T09:50:10;100235.63;;;15.76;63.79
35248;BME280;21380;52.194;20.520;2024-03-02T09:52:36;100237.56;;;15.86;63.60
35248;BME280;21380;52.194;20.520;2024-03-02T09:55:02;100243.75;;;15.94;63.34
35248;BME280;21380;52.194;20.520;2024-03-02T09:57:31;100236.06;;;16.02;63.33
35248;BME280;21380;52.194;20.520;2024-03-02T09:59:56;100229.22;;;16.09;63.30
35248;BME280;21380;52.194;20.520;2024-03-02T10:02:22;100232.81;;;16.15;63.15
35248;BME280;21380;52.194;20.520;2024-03-02T10:04:48;100227.72;;;16.23;62.96
35248;BME280;21380;52.194;20.520;2024-03-02T10:07:15;100227.78;;;16.28;62.92
35248;BME280;21380;52.194;20.520;2024-03-02T10:09:41;100228.72;;;16.33;62.87
35248;BME280;21380;52.194;20.520;2024-03-02T10:12:08;100227.91;;;16.38;62.97
35248;BME280;21380;52.194;20.520;2024-03-02T10:14:34;100214.97;;;16.43;62.83
35248;BME280;21380;52.194;20.520;2024-03-02T10:17:04;100218.47;;;16.47;62.78
35248;BME280;21380;52.194;20.520;2024-03-02T10:19:30;100219.41;;;16.52;62.62
35248;BME280;21380;52.194;20.520;2024-03-02T10:22:00;100217.72;;;16.56;62.93
35248;BME280;21380;52.194;20.520;2024-03-02T10:24:28;100220.34;;;16.59;62.50
35248;BME280;21380;52.194;20.520;2024-03-02T10:27:00;100220.41;;;16.62;62.40
35248;BME280;21380;52.194;20.520;2024-03-02T10:29:27;100228.28;;;16.66;62.47
35248;BME280;21380;52.194;20.520;2024-03-02T10:31:55;100212.69;;;16.69;62.49
35248;BME280;21380;52.194;20.520;2024-03-02T10:34:21;100216.19;;;16.72;62.47
35248;BME280;21380;52.194;20.520;2024-03-02T10:36:47;100211.00;;;16.75;62.58
35248;BME280;21380;52.194;20.520;2024-03-02T10:39:13;100213.63;;;16.76;62.41
35248;BME280;21380;52.194;20.520;2024-03-02T10:41:40;100205.88;;;16.81;62.42
35248;BME280;21380;52.194;20.520;2024-03-02T10:44:07;100208.47;;;16.82;62.45
35248;BME280;21380;52.194;20.520;2024-03-02T10:46:35;100212.84;;;16.85;62.47
35248;BME280;21380;52.194;20.520;2024-03-02T10:49:02;100207.69;;;16.88;62.24
35248;BME280;21380;52.194;20.520;2024-03-02T10:51:30;100206.84;;;16.91;62.34
35248;BME280;21380;52.194;20.520;2024-03-02T10:53:59;100212.13;;;16.94;62.49
35248;BME280;21380;52.194;20.520;2024-03-02T10:59:33;100208.72;;;16.98;62.14
35248;BME280;21380;52.194;20.520;2024-03-02T11:02:00;100207.88;;;17.00;62.30
35248;BME280;21380;52.194;20.520;2024-03-02T11:04:26;100207.00;;;17.01;62.23
35248;BME280;21380;52.194;20.520;2024-03-02T11:06:54;100200.06;;;17.04;62.36
35248;BME280;21380;52.194;20.520;2024-03-02T11:09:23;100203.56;;;17.04;62.24
35248;BME280;21380;52.194;20.520;2024-03-02T11:14:27;100187.09;;;17.08;62.34
35248;BME280;21380;52.194;20.520;2024-03-02T11:16:55;100187.09;;;17.10;62.41
35248;BME280;21380;52.194;20.520;2024-03-02T11:19:21;100194.97;;;17.13;62.30
35248;BME280;21380;52.194;20.520;2024-03-02T11:21:47;100197.56;;;17.13;62.41
35248;BME280;21380;52.194;20.520;2024-03-02T11:26:59;100185.44;;;17.16;62.32
35248;BME280;21380;52.194;20.520;2024-03-02T11:32:16;100194.13;;;17.18;62.39
35248;BME280;21380;52.194;20.520;2024-03-02T11:34:43;100183.72;;;17.20;62.33
35248;BME280;21380;52.194;20.520;2024-03-02T11:37:12;100191.56;;;17.22;62.29
35248;BME280;21380;52.194;20.520;2024-03-02T11:39:39;100188.13;;;17.23;62.20
35248;BME280;21380;52.194;20.520;2024-03-02T11:42:09;100194.19;;;17.25;62.34
35248;BME280;21380;52.194;20.520;2024-03-02T11:44:36;100185.53;;;17.26;62.40
35248;BME280;21380;52.194;20.520;2024-03-02T11:47:06;100189.00;;;17.26;62.25
35248;BME280;21380;52.194;20.520;2024-03-02T11:52:05;100182.06;;;17.28;62.10
35248;BME280;21380;52.194;20.520;2024-03-02T11:54:35;100185.56;;;17.30;62.12
35248;BME280;21380;52.194;20.520;2024-03-02T11:57:02;100185.56;;;17.30;62.42
35248;BME280;21380;52.194;20.520;2024-03-02T11:59:31;100181.22;;;17.31;62.29
35248;BME280;21380;52.194;20.520;2024-03-02T12:01:57;100176.00;;;17.32;62.40
35248;BME280;21380;52.194;20.520;2024-03-02T12:04:23;100175.16;;;17.33;62.24
35248;BME280;21380;52.194;20.520;2024-03-02T12:06:56;100174.31;;;17.34;62.46
35248;BME280;21380;52.194;20.520;2024-03-02T12:09:25;100178.66;;;17.36;62.31
35248;BME280;21380;52.194;20.520;2024-03-02T12:14:37;100180.41;;;17.37;62.48
35248;BME280;21380;52.194;20.520;2024-03-02T12:17:04;100189.09;;;17.37;62.32
35248;BME280;21380;52.194;20.520;2024-03-02T12:19:31;100176.91;;;17.38;62.45
35248;BME280;21380;52.194;20.520;2024-03-02T12:21:57;100179.56;;;17.39;62.19
35248;BME280;21380;52.194;20.520;2024-03-02T12:24:23;100172.59;;;17.40;62.46
35248;BME280;21380;52.194;20.520;2024-03-02T12:26:52;100175.22;;;17.40;62.47
35248;BME280;21380;52.194;20.520;2024-03-02T12:29:19;100172.59;;;17.41;62.28
35248;BME280;21380;52.194;20.520;2024-03-02T12:31:49;100174.34;;;17.41;62.41
35248;BME280;21380;52.194;20.520;2024-03-02T12:34:15;100167.44;;;17.43;62.34
35248;BME280;21380;52.194;20.520;2024-03-02T12:36:41;100166.53;;;17.44;62.31
35248;BME280;21380;52.194;20.520;2024-03-02T12:39:08;100168.28;;;17.45;62.27
35248;BME280;21380;52.194;20.520;2024-03-02T12:41:36;100170.91;;;17.45;62.36
35248;BME280;21380;52.194;20.520;2024-03-02T12:44:03;100170.91;;;17.46;62.39
35248;BME280;21380;52.194;20.520;2024-03-02T12:46:29;100167.44;;;17.47;62.54
35248;BME280;21380;52.194;20.520;2024-03-02T12:48:54;100162.22;;;17.47;62.52
35248;BME280;21380;52.194;20.520;2024-03-02T12:51:20;100156.16;;;17.47;62.42
35248;BME280;21380;52.194;20.520;2024-03-02T12:53:52;100145.63;;;17.38;62.55
35248;BME280;21380;52.194;20.520;2024-03-02T12:56:18;100162.25;;;17.49;62.56
35248;BME280;21380;52.194;20.520;2024-03-02T12:58:44;100168.34;;;17.51;62.47